Latest Weather Observations for Curtin

IDW60801

Issued at 8:05 am WST Sunday 26 October 2014 (issued every 30 minutes, with the page automatically refreshed every 10 minutes)

About weather observations | Map of weather stations | Latest weather observations for WA | Other Formats
Station Details ID: 003080 Name: CURTIN AERO Lat: -17.58 Lon: 123.83 Height: 77.5 m
Data from the previous 72 hours. | See also: Recent months at Curtin
Date/Time
WST
Temp
°C
App
Temp
°C
Dew
Point
Rel
Hum
%
Delta-T
°C
Wind Press
QNH
hPa
Press
MSL
hPa
Rain
since 9 am
mm
Dir
 
Spd
km/h
Gust
km/h
Spd
kts
Gust
kts
26/08:00am 29.3 31.6 22.0 64 4.9 N 13 19 7 10 1013.1 1012.6 0.0
26/07:30am 28.3 30.8 22.5 71 3.9 N 13 17 7 9 1013.3 1012.8 0.0
26/07:00am 27.1 29.9 22.3 75 3.2 N 11 17 6 9 1013.2 1012.7 0.0
26/06:30am 26.6 30.3 23.3 82 2.3 N 9 15 5 8 1013.1 1012.6 0.0
26/06:00am 25.1 29.0 23.0 88 1.4 NE 7 9 4 5 1013.0 1012.5 0.0
26/05:30am 23.4 26.6 21.3 88 1.4 NNE 6 7 3 4 1012.5 1012.0 0.0
26/05:00am 23.7 26.9 21.2 86 1.6 N 6 9 3 5 1012.1 1011.6 0.0
26/04:30am 24.6 28.1 21.9 85 1.8 NNE 6 7 3 4 1012.0 1011.5 0.0
26/04:00am 24.5 27.8 21.8 85 1.8 NE 7 11 4 6 1011.7 1011.2 0.0
26/03:30am 24.4 27.7 21.5 84 1.9 NE 6 11 3 6 1011.3 1010.8 0.0
26/03:00am 24.0 26.9 21.1 84 1.9 N 7 11 4 6 1010.9 1010.4 0.0
26/02:30am 23.0 25.1 20.1 84 1.9 NE 9 11 5 6 1010.3 1009.8 0.0
26/02:00am 23.6 26.1 20.3 82 2.1 N 7 11 4 6 1010.0 1009.5 0.0
26/01:30am 24.5 27.0 20.2 77 2.8 NW 7 9 4 5 1010.1 1009.6 0.0
26/01:00am 25.3 27.4 20.1 73 3.4 NW 9 11 5 6 1010.2 1009.7 0.0
26/12:30am 26.2 28.4 20.3 70 3.9 W 9 13 5 7 1010.5 1010.0 0.0
26/12:00am 26.7 28.4 20.1 67 4.3 WNW 11 13 6 7 1010.8 1010.3 0.0
 
Date/Time
WST
Temp
°C
App
Temp
°C
Dew
Point
Rel
Hum
%
Delta-T
°C
Wind Press
QNH
hPa
Press
MSL
hPa
Rain
since 9 am
mm
Dir
 
Spd
km/h
Gust
km/h
Spd
kts
Gust
kts
25/11:30pm 27.2 28.8 20.0 64 4.7 WNW 11 15 6 8 1011.0 1010.5 0.0
25/11:00pm 27.9 29.5 19.9 61 5.2 WNW 11 17 6 9 1011.1 1010.6 0.0
25/10:30pm 28.4 29.7 20.1 60 5.5 WNW 13 20 7 11 1011.2 1010.7 0.0
25/10:00pm 28.8 30.0 20.0 59 5.8 W 13 19 7 10 1011.7 1011.2 0.0
25/09:30pm 29.2 30.7 19.8 57 6.2 W 11 17 6 9 1011.8 1011.3 0.0
25/09:00pm 28.9 32.0 21.4 64 5.0 WNW 7 9 4 5 1011.8 1011.3 0.0
25/08:30pm 29.6 32.7 21.5 61 5.4 NW 7 9 4 5 1011.7 1011.2 0.0
25/08:00pm 30.4 32.9 21.8 60 5.8 WNW 11 19 6 10 1011.5 1011.0 0.0
25/07:30pm 30.6 33.1 22.5 62 5.5 NW 13 20 7 11 1011.4 1010.9 0.0
25/07:00pm 30.5 33.1 22.7 63 5.3 NNW 13 20 7 11 1011.0 1010.5 0.0
25/06:30pm 30.6 33.2 22.7 62 5.4 NNW 13 19 7 10 1010.7 1010.2 0.0
25/06:00pm 31.2 33.2 22.2 58 6.1 NNW 15 20 8 11 1010.2 1009.7 0.0
25/05:30pm 32.3 34.8 21.8 54 7.1 NNW 11 17 6 9 1010.0 1009.5 0.0
25/05:00pm 33.4 34.3 20.9 48 8.4 NNW 17 24 9 13 1009.8 1009.3 0.0
25/04:30pm 34.6 35.7 21.3 46 9.0 NNW 17 26 9 14 1009.2 1008.7 0.0
25/04:00pm 36.2 36.3 20.0 38 10.9 NW 19 26 10 14 1009.1 1008.6 0.0
25/03:30pm 36.0 35.8 19.4 37 11.0 NW 19 26 10 14 1009.2 1008.7 0.0
25/03:00pm 36.4 36.2 19.4 37 11.3 NNW 19 32 10 17 1009.4 1008.9 0.0
25/02:30pm 37.9 38.8 18.3 31 12.9 WNW 11 20 6 11 1009.5 1009.0 0.0
25/02:00pm 37.5 37.6 17.5 30 13.0 NW 13 22 7 12 1009.8 1009.3 0.0
25/01:30pm 36.8 37.4 16.9 31 12.8 NNE 9 15 5 8 1010.3 1009.8 0.0
25/01:00pm 36.9 37.4 17.5 32 12.6 NNW 11 19 6 10 1010.6 1010.1 0.0
25/12:30pm 36.5 36.3 17.6 32 12.3 WNW 15 28 8 15 1011.1 1010.6 0.0
25/12:00pm 36.3 36.8 18.4 35 11.8 W 13 22 7 12 1011.6 1011.1 0.0
25/11:30am 35.5 35.9 18.1 35 11.4 NW 13 20 7 11 1012.4 1011.9 0.0
25/11:00am 34.4 34.9 18.4 38 10.5 W 13 24 7 13 1013.1 1012.6 0.0
25/10:30am 33.0 34.2 19.8 45 8.8 WSW 13 20 7 11 1013.6 1013.1 0.0
25/10:00am 32.6 34.3 20.2 48 8.3 W 11 19 6 10 1014.1 1013.6 0.0
25/09:30am 32.1 33.5 20.4 50 7.8 WNW 13 19 7 10 1014.4 1013.9 0.0
25/09:00am 30.9 32.7 21.1 56 6.6 NW 13 20 7 11 1014.8 1014.2 0.0
25/08:30am 30.4 33.2 22.3 62 5.5 NW 11 20 6 11 1014.8 1014.2 0.0
25/08:00am 29.0 30.5 22.0 66 4.7 W 17 22 9 12 1015.0 1014.4 0.0
25/07:30am 28.2 31.2 22.7 72 3.7 WNW 11 17 6 9 1015.1 1014.5 0.0
25/07:00am 27.6 31.1 23.6 79 2.8 WNW 11 17 6 9 1014.7 1014.1 0.0
25/06:30am 26.2 30.3 23.9 87 1.6 NNW 9 15 5 8 1014.2 1013.7 0.0
25/06:00am 24.7 28.7 23.8 95 0.6 N 9 11 5 6 1013.7 1013.2 0.0
25/05:30am 23.8 27.9 23.3 97 0.3 N 7 9 4 5 1013.3 1012.8 0.0
25/05:00am 23.6 27.1 22.9 96 0.5 N 9 11 5 6 1012.9 1012.4 0.0
25/04:30am 23.5 26.8 22.5 94 0.7 N 9 11 5 6 1012.6 1012.1 0.0
25/04:00am 23.6 26.9 21.9 90 1.1 N 7 9 4 5 1012.3 1011.8 0.0
25/03:30am 24.3 27.4 22.2 88 1.4 N 9 13 5 7 1011.8 1011.3 0.0
25/03:00am 24.2 26.9 21.3 84 1.9 N 9 17 5 9 1011.3 1010.8 0.0
25/02:30am 23.7 25.0 19.4 77 2.8 N 11 13 6 7 1010.7 1010.2 0.0
25/02:00am 24.3 25.9 19.1 73 3.3 NNW 9 13 5 7 1010.4 1009.9 0.0
25/01:30am 24.8 25.2 17.3 63 4.7 NNW 11 15 6 8 1010.2 1009.7 0.0
25/01:00am 24.8 25.3 16.5 60 5.1 NNW 9 11 5 6 1010.5 1010.0 0.0
25/12:30am 25.7 25.9 16.8 58 5.5 NNW 11 15 6 8 1010.5 1010.0 0.0
25/12:00am 26.3 27.0 17.9 60 5.3 NW 11 15 6 8 1011.0 1010.5 0.0
 
Date/Time
WST
Temp
°C
App
Temp
°C
Dew
Point
Rel
Hum
%
Delta-T
°C
Wind Press
QNH
hPa
Press
MSL
hPa
Rain
since 9 am
mm
Dir
 
Spd
km/h
Gust
km/h
Spd
kts
Gust
kts
24/11:30pm 26.5 28.0 18.9 63 4.9 WNW 9 11 5 6 1011.4 1010.9 0.0
24/11:00pm 26.7 28.5 20.3 68 4.2 WSW 11 13 6 7 1011.7 1011.2 0.0
24/10:30pm 26.4 29.0 20.0 68 4.2 W 6 7 3 4 1011.6 1011.1 0.0
24/10:00pm 27.2 29.8 21.2 69 4.0 WNW 9 11 5 6 1011.5 1011.0 0.0
24/09:30pm 27.1 30.3 21.6 72 3.7 NNW 7 9 4 5 1011.7 1011.2 0.0
24/09:00pm 27.0 30.0 21.3 71 3.8 NNW 7 9 4 5 1011.6 1011.1 0.0
24/08:30pm 27.8 30.5 21.3 67 4.3 NNW 9 9 5 5 1011.3 1010.8 0.0
24/08:00pm 28.7 31.9 21.7 66 4.7 NNW 7 9 4 5 1010.9 1010.4 0.0
24/07:30pm 29.5 32.5 22.0 64 5.1 NW 9 13 5 7 1010.6 1010.1 0.0
24/07:00pm 30.2 32.4 21.8 60 5.7 NNW 13 19 7 10 1010.4 1009.9 0.0
24/06:30pm 30.9 33.5 21.9 58 6.1 NNW 11 17 6 9 1010.1 1009.6 0.0
24/06:00pm 31.8 33.3 21.3 53 7.1 NNW 15 22 8 12 1009.7 1009.2 0.0
24/05:30pm 32.7 34.5 21.2 50 7.8 NNW 13 22 7 12 1009.3 1008.8 0.0
24/05:00pm 33.4 34.9 21.2 48 8.3 NW 15 22 8 12 1009.0 1008.5 0.0
24/04:30pm 34.7 35.7 21.0 44 9.3 NNW 17 22 9 12 1008.9 1008.4 0.0
24/04:00pm 35.3 35.6 20.4 41 10.0 NW 19 26 10 14 1008.9 1008.4 0.0
24/03:30pm 36.1 36.2 19.1 36 11.3 WNW 17 32 9 17 1008.9 1008.4 0.0
24/03:00pm 35.7 35.6 18.7 36 11.2 NW 17 28 9 15 1009.2 1008.7 0.0
24/02:30pm 36.5 36.9 18.1 33 12.0 NW 13 20 7 11 1009.3 1008.8 0.0
24/02:00pm 37.5 37.9 19.0 34 12.3 NW 15 20 8 11 1009.5 1009.0 0.0
24/01:30pm 36.1 36.4 18.7 36 11.5 NW 15 26 8 14 1009.8 1009.3 0.0
24/01:00pm 35.6 36.0 17.3 33 11.8 NW 11 15 6 8 1010.2 1009.7 0.0
24/12:30pm 35.8 35.3 17.9 34 11.7 NNW 17 26 9 14 1010.5 1010.0 0.0
24/12:00pm 35.5 35.7 18.6 37 11.1 NW 15 22 8 12 1011.0 1010.5 0.0
24/11:30am 35.6 36.4 18.2 35 11.4 N 11 20 6 11 1011.5 1011.0 0.0
24/11:00am 34.6 35.0 18.2 37 10.7 NW 13 26 7 14 1011.9 1011.4 0.0
24/10:30am 33.9 34.6 19.6 43 9.5 W 15 26 8 14 1012.3 1011.8 0.0
24/10:00am 32.6 33.4 19.8 46 8.5 WNW 15 26 8 14 1012.7 1012.2 0.0
24/09:30am 32.3 33.6 20.2 48 8.1 NW 13 20 7 11 1012.9 1012.4 0.0
24/09:00am 31.5 32.6 20.4 51 7.4 WNW 15 24 8 13 1013.2 1012.7 0.0
24/08:30am 30.5 32.8 21.3 58 6.2 WNW 11 19 6 10 1013.3 1012.8 0.0
24/08:00am 29.1 31.5 21.6 64 5.0 NW 11 15 6 8 1013.4 1012.9 0.0
24/07:30am 27.9 31.2 22.6 73 3.6 NNW 9 15 5 8 1013.5 1013.0 0.0
24/07:00am 27.2 31.7 23.7 81 2.4 W 6 9 3 5 1013.3 1012.8 0.0
24/06:30am 27.0 31.6 24.1 84 2.0 SW 7 9 4 5 1013.1 1012.6 0.0
24/06:00am 26.1 30.5 24.5 91 1.1 SSE 9 11 5 6 1012.7 1012.2 0.0
24/05:30am 24.2 28.9 22.6 91 1.1 NNW 2 6 1 3 1012.3 1011.8 0.0
24/05:00am 25.0 29.2 23.2 90 1.2 NNW 6 6 3 3 1011.8 1011.3 0.0
24/04:30am 25.5 29.8 23.6 89 1.3 N 7 11 4 6 1011.5 1011.0 0.0
24/04:00am 25.7 29.7 23.7 89 1.4 N 9 13 5 7 1011.0 1010.5 0.0
24/03:30am 25.7 29.6 23.6 88 1.4 N 9 13 5 7 1010.7 1010.2 0.0
24/03:00am 25.7 29.5 23.4 87 1.6 NW 9 15 5 8 1010.2 1009.7 0.0
24/02:30am 25.9 28.6 23.4 86 1.7 NW 15 22 8 12 1009.7 1009.2 0.0
24/02:00am 26.0 29.1 22.9 83 2.1 NW 11 17 6 9 1009.7 1009.2 0.0
24/01:30am 26.2 29.1 23.1 83 2.1 WNW 13 20 7 11 1009.7 1009.2 0.0
24/01:00am 26.5 29.4 23.8 85 1.9 NW 15 20 8 11 1009.8 1009.3 0.0
24/12:30am 26.7 29.2 23.8 84 2.0 NW 17 24 9 13 1010.2 1009.7 0.0
24/12:00am 27.0 29.8 23.0 79 2.7 NW 13 20 7 11 1010.6 1010.1 0.0
 
Date/Time
WST
Temp
°C
App
Temp
°C
Dew
Point
Rel
Hum
%
Delta-T
°C
Wind Press
QNH
hPa
Press
MSL
hPa
Rain
since 9 am
mm
Dir
 
Spd
km/h
Gust
km/h
Spd
kts
Gust
kts
23/11:30pm 26.9 29.1 21.9 74 3.4 WNW 13 19 7 10 1010.9 1010.4 0.0
23/11:00pm 27.3 27.8 18.3 58 5.7 WNW 13 15 7 8 1011.2 1010.7 0.0
23/10:30pm 27.4 26.8 16.7 52 6.7 W 15 19 8 10 1011.2 1010.7 0.0
23/10:00pm 28.0 27.5 16.0 48 7.4 W 13 19 7 10 1012.0 1011.5 0.0
23/09:30pm 28.1 28.3 15.7 46 7.6 NW 9 11 5 6 1012.4 1011.9 0.0
23/09:00pm 28.6 29.0 15.2 44 8.2 NNW 7 9 4 5 1012.3 1011.8 0.0
23/08:30pm 29.3 29.3 15.1 42 8.7 NNE 9 15 5 8 1012.2 1011.7 0.0
23/08:00pm 29.0 29.0 15.2 43 8.5 NNE 9 19 5 10 1012.3 1011.8 0.0
23/07:30pm 28.7 28.3 16.3 47 7.7 NE 13 17 7 9 1012.6 1012.1 0.0
23/07:00pm 28.6 27.3 17.2 50 7.2 ENE 20 35 11 19 1012.5 1012.0 0.0
23/06:39pm 29.2 26.4 17.4 49 7.5 ENE 28 48 15 26 1012.8 1012.3 0.0
23/06:30pm 30.1 28.2 18.5 49 7.5 ENE 26 43 14 23 1012.4 1011.9 0.0
23/06:00pm 30.0 30.3 22.9 65 4.9 NNE 26 43 14 23 1010.6 1010.1 0.0
23/05:30pm 32.1 32.6 20.0 48 8.0 N 17 28 9 15 1009.3 1008.8 0.0
23/05:00pm 32.9 33.5 21.1 50 8.0 N 19 26 10 14 1008.9 1008.4 0.0
23/04:30pm 33.5 34.1 21.0 48 8.4 N 19 28 10 15 1008.3 1007.7 0.0
23/04:00pm 35.1 34.8 19.5 40 10.4 NNW 20 33 11 18 1008.0 1007.4 0.0
23/03:30pm 35.4 35.2 20.5 41 10.0 NW 22 33 12 18 1008.2 1007.6 0.0
23/03:00pm 36.0 36.1 21.1 42 10.1 NW 22 33 12 18 1008.2 1007.6 0.0
23/02:30pm 35.8 36.2 20.9 42 10.1 NW 20 35 11 19 1008.5 1007.9 0.0
23/02:00pm 35.8 36.0 20.5 41 10.3 NW 20 30 11 16 1008.8 1008.3 0.0
23/01:30pm 36.9 36.5 19.4 36 11.7 WNW 20 30 11 16 1009.0 1008.5 0.0
23/01:00pm 37.5 37.4 19.9 35 11.8 WNW 20 32 11 17 1009.4 1008.9 0.0
23/12:30pm 36.8 36.4 19.3 36 11.6 NW 20 28 11 15 1009.7 1009.2 0.0
23/12:00pm 35.5 34.0 18.6 37 11.1 NW 24 35 13 19 1010.1 1009.6 0.0
23/11:30am 35.8 35.4 18.8 36 11.2 WNW 19 28 10 15 1010.9 1010.4 0.0
23/11:00am 35.5 34.7 18.1 35 11.4 NNW 19 32 10 17 1011.4 1010.9 0.0
23/10:30am 34.1 34.8 19.7 42 9.6 NW 15 20 8 11 1011.9 1011.4 0.0
23/10:00am 33.2 33.2 19.7 45 9.0 NNW 19 28 10 15 1011.9 1011.4 0.0
23/09:30am 32.6 33.5 20.8 49 7.9 NW 17 30 9 16 1012.2 1011.7 0.0
23/09:00am 32.0 33.6 21.5 53 7.1 N 15 22 8 12 1012.5 1012.0 0.0
23/08:30am 30.6 33.2 22.7 62 5.4 N 13 22 7 12 1012.8 1012.3 0.0

Other Formats:

Comma delimited format used in spreadsheet applications
http://www.bom.gov.au/fwo/IDW60801/IDW60801.94204.axf

JavaScript Object Notation format (JSON) in row-major order
http://www.bom.gov.au/fwo/IDW60801/IDW60801.94204.json